createdAt,value
2019-04-14T00:00:53.288Z,12.91
2019-04-14T00:06:02.572Z,12.72
2019-04-14T00:11:10.349Z,12.84
2019-04-14T00:16:16.868Z,12.40
2019-04-14T00:21:26.098Z,12.46
2019-04-14T00:26:33.543Z,11.93
2019-04-14T00:31:41.187Z,12.96
2019-04-14T00:36:48.172Z,13.70
2019-04-14T00:41:58.622Z,12.52
2019-04-14T00:47:02.925Z,12.04
2019-04-14T00:52:12.367Z,11.80
2019-04-14T00:57:18.709Z,12.46
2019-04-14T01:02:27.526Z,10.71
2019-04-14T01:07:34.863Z,11.91
2019-04-14T01:12:43.088Z,11.83
2019-04-14T01:17:50.619Z,11.08
2019-04-14T01:22:57.494Z,11.56
2019-04-14T01:28:06.711Z,12.28
2019-04-14T01:33:14.107Z,12.07
2019-04-14T01:38:21.233Z,11.46
2019-04-14T01:43:29.970Z,11.38
2019-04-14T01:48:37.190Z,11.14
2019-04-14T01:53:45.389Z,11.04
2019-04-14T01:58:53.599Z,11.10
2019-04-14T02:04:02.949Z,12.82
2019-04-14T02:09:09.701Z,12.35
2019-04-14T02:14:19.064Z,11.98
2019-04-14T02:19:26.353Z,12.74
2019-04-14T02:24:33.263Z,11.99
2019-04-14T02:29:41.490Z,12.24
2019-04-14T02:40:28.642Z,11.02
2019-04-14T02:45:40.613Z,12.04
2019-04-14T02:50:30.302Z,12.76
2019-04-14T02:55:54.386Z,11.45
2019-04-14T03:01:02.178Z,12.42
2019-04-14T03:11:10.597Z,11.98
2019-04-14T03:16:23.458Z,11.00
2019-04-14T03:21:30.772Z,12.00
2019-04-14T03:26:26.911Z,11.18
2019-04-14T03:31:59.729Z,11.11
2019-04-14T03:47:08.806Z,12.36
2019-04-14T03:52:02.388Z,10.70
2019-04-14T03:56:53.587Z,12.21
2019-04-14T04:02:00.927Z,12.04
2019-04-14T04:07:08.331Z,11.56
2019-04-14T04:12:16.472Z,11.16
2019-04-14T04:17:25.425Z,13.29
2019-04-14T04:22:32.577Z,10.85
2019-04-14T04:27:39.773Z,12.09
2019-04-14T04:32:47.915Z,13.69
2019-04-14T04:37:56.407Z,12.80
2019-04-14T04:43:05.765Z,11.49
2019-04-14T04:48:13.174Z,10.28
2019-04-14T04:53:22.355Z,12.12
2019-04-14T04:58:21.573Z,11.91
2019-04-14T05:03:29.628Z,10.76
2019-04-14T05:08:36.909Z,11.35
2019-04-14T05:13:44.606Z,12.07
2019-04-14T05:18:51.675Z,10.95
2019-04-14T05:24:00.687Z,10.95
2019-04-14T05:29:10.007Z,11.06
2019-04-14T05:34:17.696Z,11.33
2019-04-14T05:39:26.466Z,10.39
2019-04-14T05:44:34.196Z,10.31
2019-04-14T05:49:49.378Z,10.04
2019-04-14T05:54:51.517Z,9.87
2019-04-14T06:00:06.005Z,11.19
2019-04-14T06:05:03.728Z,9.24
2019-04-14T06:10:11.026Z,9.15
2019-04-14T06:15:19.501Z,10.07
2019-04-14T06:20:27.857Z,10.74
2019-04-14T06:25:36.502Z,8.76
2019-04-14T06:30:43.841Z,8.90
2019-04-14T06:35:51.997Z,9.01
2019-04-14T06:41:00.485Z,10.46
2019-04-14T06:46:09.591Z,9.80
2019-04-14T06:51:17.796Z,9.07
2019-04-14T06:56:26.142Z,9.92
2019-04-14T07:01:35.587Z,8.69
2019-04-14T07:06:43.866Z,10.02
2019-04-14T07:11:52.097Z,7.84
2019-04-14T07:17:00.293Z,9.64
2019-04-14T07:22:08.463Z,7.80
2019-04-14T07:27:16.696Z,9.81
2019-04-14T07:32:24.963Z,9.12
2019-04-14T07:37:33.106Z,9.19
2019-04-14T07:42:41.343Z,9.42
2019-04-14T07:47:49.608Z,8.03
2019-04-14T07:52:57.757Z,7.78
2019-04-14T07:58:06.122Z,8.66
2019-04-14T08:03:14.214Z,8.30
2019-04-14T08:08:22.555Z,7.85
2019-04-14T08:13:30.637Z,7.60
2019-04-14T08:18:38.810Z,10.15
2019-04-14T08:23:46.938Z,12.40
2019-04-14T08:28:55.233Z,8.87
2019-04-14T08:34:03.636Z,9.87
2019-04-14T08:39:11.984Z,8.78
2019-04-14T08:44:26.137Z,10.58
2019-04-14T08:49:24.248Z,7.63
2019-04-14T08:54:32.542Z,8.28
2019-04-14T08:59:40.882Z,8.51
2019-04-14T09:04:49.557Z,9.55
2019-04-14T09:09:59.279Z,8.12
2019-04-14T09:15:07.567Z,9.75
2019-04-14T09:20:15.874Z,8.70
2019-04-14T09:25:24.153Z,9.53
2019-04-14T09:30:32.839Z,10.12
2019-04-14T09:35:41.141Z,9.80
2019-04-14T09:40:49.414Z,9.90
2019-04-14T09:45:57.734Z,9.55
2019-04-14T09:51:06.398Z,11.20
2019-04-14T09:56:15.130Z,10.83
2019-04-14T10:01:23.487Z,11.27
2019-04-14T10:06:31.782Z,11.95
2019-04-14T10:11:48.357Z,8.51
2019-04-14T10:16:47.762Z,10.17
2019-04-14T10:21:56.015Z,12.99
2019-04-14T10:27:04.185Z,11.43
2019-04-14T10:32:12.674Z,11.59
2019-04-14T10:37:21.082Z,11.20
2019-04-14T10:42:29.244Z,11.02
2019-04-14T10:47:37.530Z,11.74
2019-04-14T10:52:45.813Z,10.74
2019-04-14T10:57:54.114Z,12.06
2019-04-14T11:03:02.471Z,14.93
2019-04-14T11:08:10.914Z,16.12
2019-04-14T11:13:19.219Z,15.04
2019-04-14T11:18:27.408Z,13.17
2019-04-14T11:23:35.802Z,11.33
2019-04-14T11:28:44.190Z,11.51
2019-04-14T11:33:52.545Z,11.23
2019-04-14T11:39:00.792Z,15.64
2019-04-14T11:44:09.255Z,13.33
2019-04-14T11:49:17.631Z,11.36
2019-04-14T11:54:26.030Z,12.14
2019-04-14T11:59:34.229Z,11.86
2019-04-14T12:04:42.658Z,9.46
2019-04-14T12:09:51.037Z,9.83
2019-04-14T12:14:59.769Z,10.59
2019-04-14T12:20:08.183Z,11.02
2019-04-14T12:25:16.383Z,10.13
2019-04-14T12:30:24.762Z,12.03
2019-04-14T12:35:33.190Z,11.84
2019-04-14T12:40:41.520Z,15.73
2019-04-14T12:45:49.857Z,11.29
2019-04-14T12:50:58.515Z,14.19
2019-04-14T12:56:06.665Z,12.29
2019-04-14T13:01:14.882Z,11.21
2019-04-14T13:06:23.365Z,11.05
2019-04-14T13:11:31.510Z,12.13
2019-04-14T13:16:40.005Z,14.71
2019-04-14T13:21:52.287Z,12.88
2019-04-14T13:27:23.562Z,10.92
2019-04-14T13:37:21.089Z,14.26
2019-04-14T13:42:00.503Z,15.67
2019-04-14T13:47:08.844Z,13.44
2019-04-14T13:52:17.411Z,11.08
2019-04-14T13:57:25.839Z,14.17
2019-04-14T14:02:34.214Z,19.49
2019-04-14T14:07:42.416Z,17.91
2019-04-14T14:12:51.076Z,13.85
2019-04-14T14:18:00.053Z,12.13
2019-04-14T14:23:08.501Z,14.81
2019-04-14T14:28:16.822Z,13.78
2019-04-14T14:33:25.465Z,16.16
2019-04-14T14:38:33.797Z,12.41
2019-04-14T14:43:43.043Z,19.79
2019-04-14T14:48:51.158Z,15.85
2019-04-14T14:54:00.041Z,17.51
2019-04-14T14:59:08.323Z,14.97
2019-04-14T15:04:18.971Z,21.99
2019-04-14T15:09:24.774Z,13.95
2019-04-14T15:14:45.463Z,14.60
2019-04-14T15:19:34.220Z,16.34
2019-04-14T15:24:42.728Z,14.42
2019-04-14T15:29:51.084Z,15.20
2019-04-14T15:34:59.618Z,14.11
2019-04-14T15:40:08.602Z,17.55
2019-04-14T15:45:20.294Z,13.52
2019-04-14T15:50:19.171Z,15.56
2019-04-14T15:55:28.023Z,11.86
2019-04-14T16:00:36.521Z,14.46
2019-04-14T16:05:45.317Z,15.06
2019-04-14T16:10:53.585Z,13.13
2019-04-14T16:16:02.069Z,14.02
2019-04-14T16:21:10.875Z,12.36
2019-04-14T16:26:19.309Z,11.40
2019-04-14T16:31:27.806Z,11.75
2019-04-14T16:36:36.252Z,11.01
2019-04-14T16:41:44.651Z,11.51
2019-04-14T16:46:53.105Z,12.04
2019-04-14T16:52:01.944Z,11.94
2019-04-14T16:57:10.559Z,11.65
2019-04-14T17:02:19.053Z,12.84
2019-04-14T17:07:27.415Z,11.30
2019-04-14T17:12:35.910Z,9.63
2019-04-14T17:17:44.491Z,10.52
2019-04-14T17:22:52.849Z,14.01
2019-04-14T17:28:01.157Z,9.62
2019-04-14T17:33:09.767Z,13.74
2019-04-14T17:38:18.178Z,13.62
2019-04-14T17:43:26.722Z,12.58
2019-04-14T17:48:35.447Z,11.96
2019-04-14T17:53:44.101Z,12.90
2019-04-14T17:58:52.702Z,12.78
2019-04-14T18:04:00.921Z,10.56
2019-04-14T18:09:09.646Z,10.28
2019-04-14T18:14:18.099Z,10.51
2019-04-14T18:19:26.943Z,12.19
2019-04-14T18:24:50.741Z,10.79
2019-04-14T18:29:39.626Z,10.69
2019-04-14T18:34:48.270Z,17.53
2019-04-14T18:39:56.749Z,10.60
2019-04-14T18:50:35.459Z,12.75
2019-04-14T18:55:15.961Z,11.86
2019-04-14T19:00:24.621Z,15.68
2019-04-14T19:05:36.226Z,10.56
2019-04-14T19:10:34.887Z,15.42
2019-04-14T19:15:43.133Z,10.15
2019-04-14T19:20:52.060Z,10.48
2019-04-14T19:26:00.520Z,11.76
2019-04-14T19:31:09.385Z,11.63
2019-04-14T19:36:18.165Z,9.28
2019-04-14T19:41:27.400Z,10.98
2019-04-14T19:51:42.093Z,10.36
2019-04-14T19:56:50.268Z,12.69
2019-04-14T20:01:58.786Z,10.61
2019-04-14T20:07:06.944Z,11.13
2019-04-14T20:12:15.351Z,8.83
2019-04-14T20:17:23.532Z,8.70
2019-04-14T20:22:32.245Z,11.36
2019-04-14T20:27:41.302Z,8.81
2019-04-14T20:32:50.121Z,11.85
2019-04-14T20:37:58.134Z,8.99
2019-04-14T20:43:06.648Z,8.67
2019-04-14T20:48:14.756Z,7.72
2019-04-14T20:53:25.192Z,8.33
2019-04-14T20:58:30.826Z,7.29
2019-04-14T21:03:41.486Z,8.75
2019-04-14T21:08:39.777Z,6.02
2019-04-14T21:13:51.266Z,13.69
2019-04-14T21:18:55.759Z,8.45
2019-04-14T21:24:04.087Z,7.23
2019-04-14T21:29:12.310Z,6.70
2019-04-14T21:34:20.721Z,5.53
2019-04-14T21:39:28.907Z,6.64
2019-04-14T21:44:40.588Z,6.43
2019-04-14T21:49:38.683Z,5.44
2019-04-14T21:54:47.061Z,5.13
2019-04-14T21:59:56.231Z,5.20
2019-04-14T22:05:04.462Z,5.50
2019-04-14T22:10:12.780Z,4.29
2019-04-14T22:15:21.821Z,5.14
2019-04-14T22:20:29.937Z,4.17
2019-04-14T22:25:38.419Z,5.84
2019-04-14T22:30:46.680Z,5.65
2019-04-14T22:35:55.105Z,5.04
2019-04-14T22:41:03.325Z,5.47
2019-04-14T22:46:11.695Z,6.09
2019-04-14T22:51:19.934Z,4.90
2019-04-14T22:56:38.580Z,5.41
2019-04-14T23:01:37.044Z,5.31
2019-04-14T23:06:45.549Z,4.46
2019-04-14T23:11:53.795Z,4.36
2019-04-14T23:17:02.080Z,4.42
2019-04-14T23:22:10.181Z,7.54
2019-04-14T23:27:18.588Z,5.63
2019-04-14T23:32:26.701Z,8.22
2019-04-14T23:37:36.020Z,6.96
2019-04-14T23:42:44.345Z,5.80
2019-04-14T23:47:52.605Z,5.30
2019-04-14T23:53:01.814Z,5.43
2019-04-14T23:58:10.217Z,5.00
